Time;durP1;ratioP1;P1;durP2;ratioP2;P2;SDS_P1;SDS_P2;PMS_P1;PMS_P2;Temp;Humidity;BMP_temperature;BMP_pressure;BME280_temperature;BME280_humidity;BME280_pressure;Samples;Min_cycle;Max_cycle;Signal;HPM_P1;HPM_P2
2023/07/26 00:00:27;;;;;;;1.63;1.43;;;;;;;;;;5013362;28;20816;-59
2023/07/26 00:02:54;;;;;;;2.73;1.20;;;;;;;;;;5013665;28;20963;-58
2023/07/26 00:05:21;;;;;;;5.13;1.50;;;;;;;;;;5013745;28;20459;-58
2023/07/26 00:07:48;;;;;;;3.40;1.47;;;;;;;;;;5013370;28;21076;-58
2023/07/26 00:10:15;;;;;;;4.50;1.27;;;;;;;;;;5013331;28;20544;-58
2023/07/26 00:12:42;;;;;;;2.33;1.10;;;;;;;;;;5013213;28;20460;-58
2023/07/26 00:15:11;;;;;;;3.53;1.10;;;;;;;;;;5013168;28;20453;-59
2023/07/26 00:17:38;;;;;;;4.27;1.20;;;;;;;;;;5013580;28;20484;-59
2023/07/26 00:20:05;;;;;;;3.67;1.43;;;;;;;;;;5013335;28;20862;-58
2023/07/26 00:22:32;;;;;;;2.30;1.00;;;;;;;;;;5013212;28;20567;-58
2023/07/26 00:25:00;;;;;;;3.50;1.43;;;;;;;;;;5013363;28;20948;-58
2023/07/26 00:27:27;;;;;;;2.87;1.20;;;;;;;;;;5019047;28;20475;-58
2023/07/26 00:29:54;;;;;;;2.27;1.20;;;;;;;;;;5019783;28;20463;-58
2023/07/26 00:32:22;;;;;;;2.90;1.17;;;;;;;;;;5019809;28;20820;-59
2023/07/26 00:34:49;;;;;;;1.47;1.07;;;;;;;;;;5019679;28;20452;-58
2023/07/26 00:37:16;;;;;;;5.73;1.67;;;;;;;;;;5019674;28;20452;-59
2023/07/26 00:39:43;;;;;;;2.97;1.40;;;;;;;;;;5019671;28;20537;-58
2023/07/26 00:42:11;;;;;;;2.17;2.03;;;;;;;;;;5019523;28;20448;-59
2023/07/26 00:44:38;;;;;;;5.37;2.00;;;;;;;;;;5019721;28;20477;-59
2023/07/26 00:47:05;;;;;;;2.13;1.13;;;;;;;;;;5019540;28;20476;-58
2023/07/26 00:49:34;;;;;;;1.90;1.20;;;;;;;;;;5019834;28;20453;-58
2023/07/26 00:52:01;;;;;;;2.50;1.33;;;;;;;;;;5019485;28;20452;-59
2023/07/26 00:54:28;;;;;;;2.23;1.13;;;;;;;;;;5019435;28;20456;-58
2023/07/26 00:56:56;;;;;;;2.50;1.17;;;;;;;;;;5019175;28;20480;-58
2023/07/26 00:59:23;;;;;;;1.77;0.93;;;;;;;;;;5019541;28;20452;-58
2023/07/26 01:01:50;;;;;;;3.33;1.20;;;;;;;;;;5019514;28;20547;-58
2023/07/26 01:04:16;;;;;;;2.40;1.57;;;;;;;;;;5019364;28;20460;-58
2023/07/26 01:06:48;;;;;;;1.63;0.83;;;;;;;;;;5019581;28;20444;-58
2023/07/26 01:09:21;;;;;;;4.17;1.27;;;;;;;;;;5019231;28;20467;-59
2023/07/26 01:11:54;;;;;;;1.00;0.90;;;;;;;;;;5019445;28;20479;-59
2023/07/26 01:14:25;;;;;;;4.67;1.17;;;;;;;;;;5019181;28;20555;-58
2023/07/26 01:16:52;;;;;;;2.93;1.20;;;;;;;;;;5019354;28;20452;-58
2023/07/26 01:19:19;;;;;;;2.07;1.27;;;;;;;;;;5019237;28;20453;-58
2023/07/26 01:21:47;;;;;;;3.33;1.50;;;;;;;;;;5019048;28;20447;-59
2023/07/26 01:24:14;;;;;;;3.87;1.60;;;;;;;;;;5019617;28;20460;-58
2023/07/26 01:26:41;;;;;;;1.77;1.40;;;;;;;;;;5019041;28;21117;-58
2023/07/26 01:29:08;;;;;;;4.60;1.20;;;;;;;;;;5019115;28;20510;-58
2023/07/26 01:31:36;;;;;;;3.43;1.30;;;;;;;;;;5019076;28;20506;-58
2023/07/26 01:34:03;;;;;;;4.60;1.30;;;;;;;;;;5019108;28;20448;-58
2023/07/26 01:36:30;;;;;;;3.27;1.20;;;;;;;;;;5018978;28;20539;-58
2023/07/26 01:38:59;;;;;;;1.37;1.10;;;;;;;;;;5016050;28;20444;-59
2023/07/26 01:41:27;;;;;;;3.07;1.57;;;;;;;;;;5016029;28;20909;-58
2023/07/26 01:43:54;;;;;;;4.80;1.40;;;;;;;;;;5015708;28;20987;-59
2023/07/26 01:46:20;;;;;;;6.13;1.20;;;;;;;;;;5015902;28;20451;-58
2023/07/26 01:48:47;;;;;;;4.90;1.43;;;;;;;;;;5015627;28;20483;-59
2023/07/26 01:51:14;;;;;;;1.47;1.37;;;;;;;;;;5015967;28;20452;-58
2023/07/26 01:53:41;;;;;;;2.43;1.37;;;;;;;;;;5015823;28;20799;-58
2023/07/26 01:56:09;;;;;;;1.67;1.10;;;;;;;;;;5015559;28;20494;-58
2023/07/26 01:58:36;;;;;;;1.93;1.30;;;;;;;;;;5015696;28;20452;-58
2023/07/26 02:01:04;;;;;;;5.10;1.10;;;;;;;;;;5015584;28;20453;-58
2023/07/26 02:03:31;;;;;;;1.87;0.90;;;;;;;;;;5015421;28;20448;-58
2023/07/26 02:05:58;;;;;;;2.23;1.23;;;;;;;;;;5015551;28;20873;-59
2023/07/26 02:08:25;;;;;;;4.80;1.23;;;;;;;;;;5015258;28;20579;-58
2023/07/26 02:10:52;;;;;;;3.00;1.50;;;;;;;;;;5015437;28;20452;-58
2023/07/26 02:13:20;;;;;;;3.63;1.20;;;;;;;;;;5015286;28;20511;-58
2023/07/26 02:15:47;;;;;;;5.57;1.70;;;;;;;;;;5015262;28;20544;-58
2023/07/26 02:18:14;;;;;;;4.10;1.20;;;;;;;;;;5015115;28;20452;-58
2023/07/26 02:20:41;;;;;;;7.13;2.80;;;;;;;;;;5015284;28;20452;-58
2023/07/26 02:23:08;;;;;;;2.50;1.30;;;;;;;;;;5015289;28;20544;-58
2023/07/26 02:25:35;;;;;;;4.50;1.10;;;;;;;;;;5015166;28;20967;-58
2023/07/26 02:28:02;;;;;;;3.00;1.30;;;;;;;;;;5014965;28;20487;-58
2023/07/26 02:30:30;;;;;;;2.97;1.40;;;;;;;;;;5014891;28;20451;-59
2023/07/26 02:32:57;;;;;;;3.40;1.20;;;;;;;;;;5015438;28;20444;-58
2023/07/26 02:35:24;;;;;;;1.43;1.17;;;;;;;;;;5015084;28;20819;-58
2023/07/26 02:37:51;;;;;;;2.30;1.17;;;;;;;;;;5014910;28;20462;-59
2023/07/26 02:40:18;;;;;;;4.47;2.00;;;;;;;;;;5014798;28;20535;-58
2023/07/26 02:42:45;;;;;;;3.53;1.37;;;;;;;;;;5014796;28;20456;-58
2023/07/26 02:45:11;;;;;;;2.93;1.40;;;;;;;;;;5014655;28;20454;-59
2023/07/26 02:47:40;;;;;;;1.77;1.30;;;;;;;;;;5014832;28;20900;-58
2023/07/26 02:50:07;;;;;;;2.30;1.50;;;;;;;;;;5014257;28;20887;-58
2023/07/26 02:52:34;;;;;;;3.20;1.53;;;;;;;;;;5014718;28;20542;-58
2023/07/26 02:55:01;;;;;;;2.30;1.40;;;;;;;;;;5014596;28;20479;-58
2023/07/26 02:57:27;;;;;;;4.57;1.63;;;;;;;;;;5014573;28;20482;-58
2023/07/26 02:59:54;;;;;;;4.63;1.33;;;;;;;;;;5014377;28;20459;-58
2023/07/26 03:02:21;;;;;;;4.20;1.67;;;;;;;;;;5014515;28;20487;-58
2023/07/26 03:04:49;;;;;;;1.87;1.20;;;;;;;;;;5014556;28;20526;-58
2023/07/26 03:07:16;;;;;;;2.27;1.30;;;;;;;;;;5014432;28;20484;-58
2023/07/26 03:09:43;;;;;;;2.83;1.50;;;;;;;;;;5014262;28;20489;-58
2023/07/26 03:12:10;;;;;;;2.10;1.23;;;;;;;;;;5014093;28;20452;-58
2023/07/26 03:14:40;;;;;;;3.83;1.53;;;;;;;;;;5014334;28;20447;-58
2023/07/26 03:17:08;;;;;;;2.23;1.47;;;;;;;;;;5014249;28;20458;-59
2023/07/26 03:19:35;;;;;;;5.60;2.10;;;;;;;;;;5014209;28;20461;-59
2023/07/26 03:22:03;;;;;;;6.07;1.40;;;;;;;;;;5014242;28;20452;-59
2023/07/26 03:24:30;;;;;;;3.10;1.50;;;;;;;;;;5014165;28;20862;-58
2023/07/26 03:26:57;;;;;;;3.00;2.20;;;;;;;;;;5013838;28;20486;-58
2023/07/26 03:29:23;;;;;;;4.40;1.70;;;;;;;;;;5014046;28;20578;-58
2023/07/26 03:31:50;;;;;;;2.03;1.17;;;;;;;;;;5013830;28;20944;-58
2023/07/26 03:34:17;;;;;;;4.00;1.27;;;;;;;;;;5013855;28;20459;-58
2023/07/26 03:36:44;;;;;;;3.17;1.37;;;;;;;;;;5013794;28;20455;-58
2023/07/26 03:39:12;;;;;;;1.57;1.33;;;;;;;;;;5013946;28;20550;-58
2023/07/26 03:41:39;;;;;;;3.50;1.33;;;;;;;;;;5013698;28;20802;-59
2023/07/26 03:44:06;;;;;;;3.83;1.50;;;;;;;;;;5013753;28;20455;-58
2023/07/26 03:46:33;;;;;;;5.63;1.90;;;;;;;;;;5013793;28;20457;-58
2023/07/26 03:49:00;;;;;;;3.30;1.53;;;;;;;;;;5013574;28;20575;-58
2023/07/26 03:51:27;;;;;;;4.50;2.00;;;;;;;;;;5013566;28;20557;-58
2023/07/26 03:53:54;;;;;;;1.70;1.20;;;;;;;;;;5013409;28;20460;-59
2023/07/26 03:56:22;;;;;;;2.23;1.40;;;;;;;;;;5013592;28;20946;-59
2023/07/26 03:58:49;;;;;;;2.17;1.20;;;;;;;;;;5013647;28;20843;-59
2023/07/26 04:01:16;;;;;;;1.83;1.57;;;;;;;;;;5012838;28;20451;-58
2023/07/26 04:03:43;;;;;;;2.90;1.77;;;;;;;;;;5013329;28;20975;-58
2023/07/26 04:06:12;;;;;;;1.50;1.37;;;;;;;;;;5013362;28;20488;-58
2023/07/26 04:08:40;;;;;;;3.40;1.73;;;;;;;;;;5013089;28;21025;-59
2023/07/26 04:11:07;;;;;;;2.57;1.40;;;;;;;;;;5013404;28;20457;-58
2023/07/26 04:13:35;;;;;;;6.93;1.90;;;;;;;;;;5013352;28;20457;-58
2023/07/26 04:16:02;;;;;;;1.30;1.20;;;;;;;;;;5013211;28;20964;-59
2023/07/26 04:18:29;;;;;;;1.50;1.20;;;;;;;;;;5013167;28;20455;-59
2023/07/26 04:20:56;;;;;;;3.07;1.33;;;;;;;;;;5013241;28;20456;-59
2023/07/26 04:23:23;;;;;;;4.20;1.90;;;;;;;;;;5013174;28;20455;-58
2023/07/26 04:25:50;;;;;;;3.60;1.60;;;;;;;;;;5013546;28;20474;-58
2023/07/26 04:28:17;;;;;;;3.27;1.43;;;;;;;;;;5013215;28;20470;-59
2023/07/26 04:30:48;;;;;;;2.20;1.83;;;;;;;;;;5013276;28;20899;-58
2023/07/26 04:33:15;;;;;;;3.50;1.60;;;;;;;;;;5013106;28;20503;-58
2023/07/26 04:35:44;;;;;;;3.33;1.60;;;;;;;;;;5012853;28;20532;-58
2023/07/26 04:38:12;;;;;;;5.80;1.60;;;;;;;;;;5013188;28;21044;-58
2023/07/26 04:40:39;;;;;;;2.47;1.97;;;;;;;;;;5013109;28;20462;-58
2023/07/26 04:43:06;;;;;;;1.90;1.23;;;;;;;;;;5013126;28;20486;-59
2023/07/26 04:45:33;;;;;;;4.97;1.80;;;;;;;;;;5012985;28;20457;-58
2023/07/26 04:48:01;;;;;;;4.03;1.80;;;;;;;;;;5012736;28;20444;-59
2023/07/26 04:50:28;;;;;;;3.77;1.20;;;;;;;;;;5012812;28;20852;-58
2023/07/26 04:52:55;;;;;;;2.80;1.30;;;;;;;;;;5012950;28;20452;-58
2023/07/26 04:55:22;;;;;;;1.50;1.40;;;;;;;;;;5013013;28;20455;-58
2023/07/26 04:57:48;;;;;;;2.93;1.53;;;;;;;;;;5012688;28;20507;-58
2023/07/26 05:00:15;;;;;;;2.23;1.43;;;;;;;;;;5012725;28;20944;-58
2023/07/26 05:02:42;;;;;;;1.73;1.57;;;;;;;;;;5012743;28;20457;-59
2023/07/26 05:05:11;;;;;;;3.17;1.80;;;;;;;;;;5012825;28;20452;-59
2023/07/26 05:07:37;;;;;;;2.83;1.60;;;;;;;;;;5012834;28;20457;-58
2023/07/26 05:10:05;;;;;;;3.07;1.40;;;;;;;;;;5012772;28;20487;-58
2023/07/26 05:12:32;;;;;;;3.60;2.20;;;;;;;;;;5014279;28;20459;-58
2023/07/26 05:14:58;;;;;;;2.17;1.40;;;;;;;;;;5016664;28;20458;-58
2023/07/26 05:17:25;;;;;;;4.50;2.87;;;;;;;;;;5016303;28;20496;-58
2023/07/26 05:19:52;;;;;;;4.67;1.67;;;;;;;;;;5016497;28;20550;-58
2023/07/26 05:22:20;;;;;;;4.10;1.67;;;;;;;;;;5016302;28;20458;-58
2023/07/26 05:24:47;;;;;;;4.97;1.70;;;;;;;;;;5016207;28;20497;-58
2023/07/26 05:27:14;;;;;;;2.60;1.27;;;;;;;;;;5016203;28;20866;-58
2023/07/26 05:29:41;;;;;;;3.13;1.50;;;;;;;;;;5015955;28;20574;-58
2023/07/26 05:32:09;;;;;;;1.40;1.20;;;;;;;;;;5015971;28;20487;-58
2023/07/26 05:34:36;;;;;;;5.73;1.70;;;;;;;;;;5016001;28;20498;-59
2023/07/26 05:37:03;;;;;;;3.37;1.70;;;;;;;;;;5015989;28;20455;-58
2023/07/26 05:39:32;;;;;;;1.77;1.63;;;;;;;;;;5015961;28;20452;-58
2023/07/26 05:41:59;;;;;;;4.50;1.67;;;;;;;;;;5015842;28;20452;-58
2023/07/26 05:44:26;;;;;;;5.00;1.60;;;;;;;;;;5015725;28;20883;-58
2023/07/26 05:46:53;;;;;;;3.80;1.57;;;;;;;;;;5015945;28;20465;-59
2023/07/26 05:49:20;;;;;;;1.70;1.30;;;;;;;;;;5015837;28;20542;-58
2023/07/26 05:51:47;;;;;;;2.00;1.47;;;;;;;;;;5015754;28;20890;-58
2023/07/26 05:54:13;;;;;;;3.93;2.03;;;;;;;;;;5015725;28;20455;-58
2023/07/26 05:56:42;;;;;;;3.40;1.40;;;;;;;;;;5015573;28;20570;-58
2023/07/26 05:59:09;;;;;;;3.67;1.77;;;;;;;;;;5015541;28;20824;-59
2023/07/26 06:01:36;;;;;;;3.57;1.50;;;;;;;;;;5015670;28;20542;-58
2023/07/26 06:04:03;;;;;;;7.00;2.13;;;;;;;;;;5015501;28;20816;-58
2023/07/26 06:06:30;;;;;;;3.57;1.60;;;;;;;;;;5014584;28;21171;-58
2023/07/26 06:08:58;;;;;;;2.70;1.30;;;;;;;;;;5014424;28;20578;-58
2023/07/26 06:11:25;;;;;;;3.17;1.73;;;;;;;;;;5015257;28;20816;-59
2023/07/26 06:13:53;;;;;;;4.47;1.87;;;;;;;;;;5015665;28;20481;-59
2023/07/26 06:16:20;;;;;;;3.83;1.53;;;;;;;;;;5014878;28;20547;-58
2023/07/26 06:18:46;;;;;;;4.60;1.43;;;;;;;;;;5015024;28;20536;-58
2023/07/26 06:21:15;;;;;;;3.17;1.63;;;;;;;;;;5015175;28;20448;-59
2023/07/26 06:23:42;;;;;;;3.87;1.43;;;;;;;;;;5014250;28;20457;-59
2023/07/26 06:26:08;;;;;;;1.97;1.37;;;;;;;;;;5015152;28;20492;-58
2023/07/26 06:28:35;;;;;;;2.40;1.43;;;;;;;;;;5014991;28;20836;-58
2023/07/26 06:31:03;;;;;;;4.37;2.27;;;;;;;;;;5015106;28;20545;-58
2023/07/26 06:33:32;;;;;;;5.83;1.57;;;;;;;;;;5014984;28;20535;-59
2023/07/26 06:35:59;;;;;;;4.87;1.67;;;;;;;;;;5014795;28;20470;-58
2023/07/26 06:38:26;;;;;;;1.50;1.40;;;;;;;;;;4997270;28;20514;-59
2023/07/26 06:40:53;;;;;;;2.97;1.77;;;;;;;;;;5014930;28;20460;-59
2023/07/26 06:43:20;;;;;;;1.87;1.47;;;;;;;;;;5014604;28;20934;-59
2023/07/26 06:45:47;;;;;;;2.30;1.33;;;;;;;;;;5014529;28;20451;-57
2023/07/26 06:48:16;;;;;;;3.83;1.83;;;;;;;;;;5013888;28;20543;-58
2023/07/26 06:50:45;;;;;;;5.90;1.40;;;;;;;;;;5014684;28;20497;-59
2023/07/26 06:53:13;;;;;;;3.30;1.80;;;;;;;;;;5014237;28;20605;-58
2023/07/26 06:55:41;;;;;;;5.57;1.50;;;;;;;;;;5014813;28;20454;-58
2023/07/26 06:58:08;;;;;;;4.60;1.43;;;;;;;;;;5014315;28;20822;-58
2023/07/26 07:00:35;;;;;;;3.57;1.80;;;;;;;;;;5014521;28;20495;-58
2023/07/26 07:03:02;;;;;;;5.97;1.30;;;;;;;;;;5014146;28;20519;-58
2023/07/26 07:05:32;;;;;;;6.60;1.80;;;;;;;;;;5014261;28;20555;-59
2023/07/26 07:07:59;;;;;;;3.53;1.30;;;;;;;;;;5014316;28;20967;-57
2023/07/26 07:10:26;;;;;;;3.00;1.40;;;;;;;;;;5013995;28;20492;-58
2023/07/26 07:12:52;;;;;;;5.30;1.70;;;;;;;;;;5014348;28;20456;-58
2023/07/26 07:15:19;;;;;;;2.30;1.60;;;;;;;;;;5014129;28;20545;-58
2023/07/26 07:17:46;;;;;;;4.30;1.40;;;;;;;;;;5014124;28;20476;-58
2023/07/26 07:20:13;;;;;;;2.80;1.73;;;;;;;;;;5013888;28;20487;-59
2023/07/26 07:22:41;;;;;;;1.87;1.50;;;;;;;;;;5014173;28;20454;-59
2023/07/26 07:25:09;;;;;;;2.63;1.93;;;;;;;;;;5013843;28;20956;-58
2023/07/26 07:27:36;;;;;;;7.50;1.50;;;;;;;;;;5013912;28;20503;-58
2023/07/26 07:30:03;;;;;;;3.97;1.80;;;;;;;;;;5013828;28;20504;-59
2023/07/26 07:32:30;;;;;;;3.73;1.93;;;;;;;;;;5013803;28;20889;-58
2023/07/26 07:34:57;;;;;;;4.10;1.37;;;;;;;;;;5013566;28;21029;-58
2023/07/26 07:37:23;;;;;;;4.73;1.50;;;;;;;;;;5014071;28;20455;-58
2023/07/26 07:39:52;;;;;;;1.83;1.20;;;;;;;;;;5013770;28;20454;-58
2023/07/26 07:42:19;;;;;;;4.17;1.20;;;;;;;;;;5013966;28;20548;-58
2023/07/26 07:44:45;;;;;;;1.33;1.23;;;;;;;;;;5013540;28;20540;-58
2023/07/26 07:47:12;;;;;;;2.97;1.33;;;;;;;;;;5013970;28;20460;-58
2023/07/26 07:49:39;;;;;;;4.70;1.60;;;;;;;;;;5013728;28;20844;-58
2023/07/26 07:52:07;;;;;;;3.13;1.33;;;;;;;;;;5013667;28;20453;-58
2023/07/26 07:54:34;;;;;;;1.87;0.97;;;;;;;;;;5013636;28;20549;-58
2023/07/26 07:57:02;;;;;;;3.03;1.10;;;;;;;;;;5013310;28;20797;-57
2023/07/26 07:59:29;;;;;;;4.17;1.10;;;;;;;;;;5013537;28;20453;-58
2023/07/26 08:01:56;;;;;;;2.33;1.17;;;;;;;;;;5013537;28;20877;-58
2023/07/26 08:04:23;;;;;;;1.90;0.97;;;;;;;;;;5013541;28;20453;-58
2023/07/26 08:06:50;;;;;;;1.53;1.00;;;;;;;;;;5013251;28;20448;-58
2023/07/26 08:09:17;;;;;;;1.13;1.03;;;;;;;;;;5013180;28;20456;-58
2023/07/26 08:11:44;;;;;;;1.43;1.00;;;;;;;;;;5013378;28;20908;-57
2023/07/26 08:14:12;;;;;;;3.40;1.17;;;;;;;;;;5013156;28;20451;-58
2023/07/26 08:16:39;;;;;;;2.10;1.10;;;;;;;;;;5013110;28;20450;-57
2023/07/26 08:19:06;;;;;;;1.40;0.90;;;;;;;;;;5013221;28;20482;-58
2023/07/26 08:21:33;;;;;;;2.30;1.00;;;;;;;;;;5013275;28;20545;-58
2023/07/26 08:23:59;;;;;;;1.20;1.10;;;;;;;;;;5013293;28;20452;-58
2023/07/26 08:26:26;;;;;;;1.20;1.10;;;;;;;;;;5013189;28;20552;-58
2023/07/26 08:28:53;;;;;;;2.10;1.17;;;;;;;;;;5012874;28;20467;-58
2023/07/26 08:31:22;;;;;;;2.23;1.13;;;;;;;;;;5012909;28;20958;-58
2023/07/26 08:33:48;;;;;;;1.37;0.90;;;;;;;;;;5013175;28;20541;-58
2023/07/26 08:36:15;;;;;;;1.83;1.40;;;;;;;;;;5013237;28;20457;-58
2023/07/26 08:38:42;;;;;;;1.50;1.40;;;;;;;;;;5012884;28;20979;-58
2023/07/26 08:41:09;;;;;;;1.30;1.00;;;;;;;;;;5012772;28;20465;-59
2023/07/26 08:43:38;;;;;;;2.90;2.10;;;;;;;;;;5012792;28;20454;-58
2023/07/26 08:46:05;;;;;;;1.57;0.80;;;;;;;;;;5013090;28;20461;-58
2023/07/26 08:48:34;;;;;;;1.40;1.20;;;;;;;;;;5016374;28;20446;-58
2023/07/26 08:51:02;;;;;;;1.37;1.27;;;;;;;;;;5016784;28;20580;-58
2023/07/26 08:53:29;;;;;;;2.23;1.40;;;;;;;;;;5016648;28;20541;-58
2023/07/26 08:55:56;;;;;;;2.63;1.33;;;;;;;;;;5016235;28;20446;-58
2023/07/26 08:58:23;;;;;;;3.07;1.20;;;;;;;;;;5016648;28;20580;-59
2023/07/26 09:00:50;;;;;;;2.53;1.17;;;;;;;;;;5016783;28;20545;-59
2023/07/26 09:03:17;;;;;;;2.17;1.00;;;;;;;;;;5016724;28;20445;-58
2023/07/26 09:05:46;;;;;;;1.90;1.10;;;;;;;;;;5016569;28;20457;-58
2023/07/26 09:08:13;;;;;;;1.50;1.40;;;;;;;;;;5016542;28;20450;-58
2023/07/26 09:10:40;;;;;;;2.00;1.13;;;;;;;;;;5016269;28;20570;-58
2023/07/26 09:13:11;;;;;;;1.13;1.03;;;;;;;;;;5016593;28;20485;-58
2023/07/26 09:15:39;;;;;;;1.30;1.20;;;;;;;;;;5016428;28;20470;-58
2023/07/26 09:18:06;;;;;;;1.60;1.43;;;;;;;;;;5016319;28;20604;-58
2023/07/26 09:20:34;;;;;;;3.03;1.33;;;;;;;;;;5016356;28;20541;-58
2023/07/26 09:23:06;;;;;;;1.50;1.40;;;;;;;;;;5016144;28;20800;-58
2023/07/26 09:25:34;;;;;;;1.40;1.27;;;;;;;;;;5016351;28;20450;-58
2023/07/26 09:28:01;;;;;;;1.03;0.90;;;;;;;;;;5016271;28;20879;-58
2023/07/26 09:30:28;;;;;;;2.60;1.30;;;;;;;;;;5016176;28;20477;-59
2023/07/26 09:32:56;;;;;;;1.30;1.00;;;;;;;;;;5016170;28;20541;-59
2023/07/26 09:35:23;;;;;;;1.27;1.17;;;;;;;;;;5015925;28;20536;-58
2023/07/26 09:37:50;;;;;;;1.30;1.07;;;;;;;;;;5015807;28;20451;-58
2023/07/26 09:40:18;;;;;;;2.47;1.20;;;;;;;;;;5016057;28;20891;-58
2023/07/26 09:42:46;;;;;;;2.00;1.03;;;;;;;;;;5015887;28;20482;-58
2023/07/26 09:45:16;;;;;;;1.47;1.10;;;;;;;;;;5015814;28;20451;-58
2023/07/26 09:47:43;;;;;;;2.10;1.30;;;;;;;;;;5015797;28;20450;-58
2023/07/26 09:50:25;;;;;;;1.97;1.30;;;;;;;;;;5015616;28;20482;-58
2023/07/26 09:52:53;;;;;;;1.30;1.20;;;;;;;;;;5015749;28;20846;-58
2023/07/26 09:55:23;;;;;;;1.57;1.43;;;;;;;;;;5015752;28;20457;-58
2023/07/26 09:57:52;;;;;;;1.53;1.10;;;;;;;;;;5015104;28;20566;-58
2023/07/26 10:00:20;;;;;;;1.70;1.40;;;;;;;;;;5014687;28;20460;-58
2023/07/26 10:02:47;;;;;;;1.70;1.30;;;;;;;;;;5015388;28;20567;-58
2023/07/26 10:05:16;;;;;;;2.50;1.40;;;;;;;;;;5015491;28;20461;-58
2023/07/26 10:07:45;;;;;;;1.43;1.00;;;;;;;;;;5015259;28;20954;-58
2023/07/26 10:10:13;;;;;;;1.73;1.10;;;;;;;;;;5015283;28;20993;-58
2023/07/26 10:12:41;;;;;;;1.37;1.00;;;;;;;;;;5015341;28;20533;-58
2023/07/26 10:15:10;;;;;;;1.10;0.90;;;;;;;;;;5015157;28;20446;-58
2023/07/26 10:17:37;;;;;;;2.43;1.20;;;;;;;;;;5015281;28;20602;-58
2023/07/26 10:20:04;;;;;;;1.63;1.00;;;;;;;;;;5015354;28;20890;-58
2023/07/26 10:22:31;;;;;;;2.60;1.30;;;;;;;;;;5015130;28;20537;-58
2023/07/26 10:24:58;;;;;;;1.30;1.20;;;;;;;;;;5015147;28;20489;-56
2023/07/26 10:27:25;;;;;;;1.47;1.10;;;;;;;;;;5014934;28;20446;-58
2023/07/26 10:29:54;;;;;;;2.00;1.20;;;;;;;;;;5014830;28;20537;-58
2023/07/26 10:32:21;;;;;;;2.80;1.40;;;;;;;;;;5015028;28;20457;-58
2023/07/26 10:34:55;;;;;;;1.20;1.10;;;;;;;;;;5014790;28;20999;-58
2023/07/26 10:37:21;;;;;;;2.10;1.27;;;;;;;;;;5014847;28;20465;-58
2023/07/26 10:39:49;;;;;;;2.73;1.10;;;;;;;;;;5014732;28;20538;-58
2023/07/26 10:42:22;;;;;;;2.47;1.40;;;;;;;;;;5014738;28;20466;-58
2023/07/26 10:44:49;;;;;;;1.13;1.00;;;;;;;;;;5014816;28;20455;-58
2023/07/26 10:47:17;;;;;;;1.60;1.20;;;;;;;;;;5014747;28;20451;-58
2023/07/26 10:49:46;;;;;;;2.63;1.57;;;;;;;;;;5014680;28;20494;-58
2023/07/26 10:52:13;;;;;;;1.53;1.30;;;;;;;;;;5014521;28;20482;-58
2023/07/26 10:54:41;;;;;;;2.40;1.20;;;;;;;;;;5014558;28;20887;-58
2023/07/26 10:57:15;;;;;;;1.40;1.30;;;;;;;;;;5014147;28;20557;-58
2023/07/26 10:59:50;;;;;;;4.27;1.20;;;;;;;;;;5014527;28;20458;-58
2023/07/26 11:02:34;;;;;;;2.20;1.30;;;;;;;;;;5014486;28;20477;-58
2023/07/26 11:05:02;;;;;;;1.60;1.10;;;;;;;;;;5014296;28;21000;-58
2023/07/26 11:07:44;;;;;;;1.90;1.10;;;;;;;;;;5014067;28;20462;-59
2023/07/26 11:10:18;;;;;;;1.77;1.10;;;;;;;;;;5013163;28;20497;-58
2023/07/26 11:12:45;;;;;;;1.43;1.10;;;;;;;;;;5014318;28;20466;-58
2023/07/26 11:15:12;;;;;;;1.97;1.20;;;;;;;;;;5014241;28;20490;-58
2023/07/26 11:17:42;;;;;;;1.53;1.33;;;;;;;;;;5014092;28;20541;-58
2023/07/26 11:20:10;;;;;;;2.17;1.07;;;;;;;;;;5014338;28;20466;-58
2023/07/26 11:22:37;;;;;;;1.67;1.30;;;;;;;;;;5014164;28;20466;-58
2023/07/26 11:25:05;;;;;;;1.40;1.30;;;;;;;;;;5014136;28;20450;-58
2023/07/26 11:27:32;;;;;;;1.53;1.20;;;;;;;;;;5013962;28;20829;-58
2023/07/26 11:30:01;;;;;;;1.83;1.57;;;;;;;;;;5013791;28;20862;-58
2023/07/26 11:32:28;;;;;;;2.80;1.10;;;;;;;;;;5013779;28;20846;-58
2023/07/26 11:34:57;;;;;;;1.10;1.00;;;;;;;;;;5013717;28;21009;-57
2023/07/26 11:37:24;;;;;;;2.30;1.33;;;;;;;;;;5013703;28;20545;-58
2023/07/26 11:40:03;;;;;;;3.87;1.20;;;;;;;;;;5013813;28;20499;-58
2023/07/26 11:42:30;;;;;;;1.13;1.00;;;;;;;;;;5013744;28;20454;-58
2023/07/26 11:44:57;;;;;;;3.13;1.40;;;;;;;;;;5013486;28;20553;-58
2023/07/26 11:47:24;;;;;;;3.23;1.40;;;;;;;;;;5013634;28;20453;-58
2023/07/26 11:49:51;;;;;;;2.57;1.60;;;;;;;;;;5013733;28;20631;-58
2023/07/26 11:52:19;;;;;;;6.20;2.17;;;;;;;;;;5013395;28;20490;-58
2023/07/26 11:54:57;;;;;;;4.20;2.23;;;;;;;;;;5013544;28;20459;-58
2023/07/26 11:57:24;;;;;;;3.80;1.87;;;;;;;;;;5013218;28;20478;-58
2023/07/26 11:59:51;;;;;;;4.63;1.90;;;;;;;;;;5013560;28;20454;-58
2023/07/26 12:02:18;;;;;;;3.30;2.10;;;;;;;;;;5013425;28;20538;-58
2023/07/26 12:05:02;;;;;;;2.50;1.83;;;;;;;;;;5013431;28;20433;-58
2023/07/26 12:07:30;;;;;;;4.67;2.53;;;;;;;;;;5012829;28;20460;-58
2023/07/26 12:09:57;;;;;;;4.87;2.10;;;;;;;;;;5013453;28;20485;-58
2023/07/26 12:12:24;;;;;;;5.70;2.23;;;;;;;;;;5013248;28;21008;-58
2023/07/26 12:14:51;;;;;;;3.50;2.20;;;;;;;;;;5013175;28;20465;-58
2023/07/26 12:17:18;;;;;;;2.23;1.70;;;;;;;;;;5013161;28;20552;-59
2023/07/26 12:19:46;;;;;;;2.40;2.03;;;;;;;;;;5013128;28;20537;-58
2023/07/26 12:22:13;;;;;;;4.70;2.00;;;;;;;;;;5012190;28;20546;-59
2023/07/26 12:24:58;;;;;;;1.70;1.60;;;;;;;;;;5013216;28;20453;-58
2023/07/26 12:27:26;;;;;;;3.50;1.70;;;;;;;;;;5013145;28;20538;-58
2023/07/26 12:29:54;;;;;;;4.80;1.77;;;;;;;;;;5012842;28;20816;-58
2023/07/26 12:32:21;;;;;;;1.97;1.67;;;;;;;;;;5012862;28;20484;-58
2023/07/26 12:34:48;;;;;;;3.23;1.60;;;;;;;;;;5012814;28;20488;-58
2023/07/26 12:37:16;;;;;;;2.10;1.67;;;;;;;;;;5013180;28;20500;-58
2023/07/26 12:39:45;;;;;;;4.60;2.30;;;;;;;;;;5012966;28;20492;-58
2023/07/26 12:42:12;;;;;;;2.10;1.90;;;;;;;;;;5012955;28;20487;-58
2023/07/26 12:44:40;;;;;;;1.60;1.50;;;;;;;;;;5012946;28;20491;-58
2023/07/26 12:47:07;;;;;;;2.73;1.90;;;;;;;;;;5012763;28;20544;-58
2023/07/26 12:49:35;;;;;;;2.20;1.83;;;;;;;;;;5012715;28;20461;-58
2023/07/26 12:52:02;;;;;;;2.80;2.07;;;;;;;;;;5014928;28;20485;-58
2023/07/26 12:54:29;;;;;;;2.03;1.90;;;;;;;;;;5020135;28;20455;-56
2023/07/26 12:56:56;;;;;;;2.63;1.63;;;;;;;;;;5023545;28;20461;-58
2023/07/26 12:59:23;;;;;;;3.27;1.80;;;;;;;;;;5017293;28;20480;-58
2023/07/26 13:01:53;;;;;;;2.40;1.80;;;;;;;;;;5023739;28;20446;-59
2023/07/26 13:04:20;;;;;;;2.30;1.63;;;;;;;;;;5025048;28;20448;-59
2023/07/26 13:06:47;;;;;;;1.63;1.53;;;;;;;;;;5016124;28;20453;-58
2023/07/26 13:09:14;;;;;;;1.50;1.40;;;;;;;;;;5018566;28;20450;-58
2023/07/26 13:11:41;;;;;;;1.90;1.43;;;;;;;;;;5019423;28;20980;-58
2023/07/26 13:14:08;;;;;;;2.60;1.60;;;;;;;;;;5021450;28;20988;-59
2023/07/26 13:16:36;;;;;;;2.37;1.50;;;;;;;;;;5014983;28;20544;-58
2023/07/26 13:19:05;;;;;;;1.60;1.50;;;;;;;;;;5032042;28;20445;-59
2023/07/26 13:21:32;;;;;;;1.53;1.40;;;;;;;;;;5018370;28;20541;-58
2023/07/26 13:23:59;;;;;;;1.63;1.53;;;;;;;;;;5022411;28;20447;-60
2023/07/26 13:26:26;;;;;;;2.00;1.50;;;;;;;;;;5025622;28;20542;-59
2023/07/26 13:28:53;;;;;;;1.47;1.37;;;;;;;;;;5015594;28;20445;-58
2023/07/26 13:31:20;;;;;;;1.93;1.37;;;;;;;;;;5027512;28;20557;-61
2023/07/26 13:33:47;;;;;;;1.57;1.33;;;;;;;;;;5022261;28;20450;-59
2023/07/26 13:36:16;;;;;;;1.60;1.47;;;;;;;;;;5023843;28;20453;-62
2023/07/26 13:38:43;;;;;;;1.70;1.60;;;;;;;;;;5031280;28;20453;-57
2023/07/26 13:41:09;;;;;;;2.07;1.97;;;;;;;;;;5018963;28;20452;-59
2023/07/26 13:43:36;;;;;;;1.60;1.50;;;;;;;;;;5029113;28;20534;-56
2023/07/26 13:46:03;;;;;;;2.40;1.83;;;;;;;;;;5022522;28;20442;-62
2023/07/26 13:48:30;;;;;;;2.83;2.23;;;;;;;;;;5023847;28;20905;-62
2023/07/26 13:50:57;;;;;;;1.83;1.70;;;;;;;;;;5024742;28;20442;-61
2023/07/26 13:53:25;;;;;;;1.60;1.50;;;;;;;;;;5024749;28;20542;-62
2023/07/26 13:55:52;;;;;;;1.67;1.30;;;;;;;;;;5023403;28;20447;-62
2023/07/26 13:58:25;;;;;;;3.27;1.90;;;;;;;;;;5022830;28;20449;-66
2023/07/26 14:00:52;;;;;;;1.63;1.53;;;;;;;;;;5024871;28;20540;-62
2023/07/26 14:03:19;;;;;;;5.47;2.40;;;;;;;;;;5022800;28;20639;-62
2023/07/26 14:05:46;;;;;;;5.60;1.97;;;;;;;;;;5014697;28;20459;-62
2023/07/26 14:08:13;;;;;;;1.90;1.80;;;;;;;;;;5017551;28;20456;-62
2023/07/26 14:10:41;;;;;;;3.93;2.10;;;;;;;;;;5024438;28;20473;-63
2023/07/26 14:13:08;;;;;;;2.17;1.50;;;;;;;;;;5025625;28;21483;-63
2023/07/26 14:15:35;;;;;;;5.07;2.60;;;;;;;;;;5022720;28;20543;-62
2023/07/26 14:18:02;;;;;;;1.77;1.63;;;;;;;;;;5024677;28;20475;-62
2023/07/26 14:20:32;;;;;;;3.50;1.47;;;;;;;;;;5023726;28;20451;-62
2023/07/26 14:22:59;;;;;;;3.23;1.67;;;;;;;;;;5018970;28;20955;-63
2023/07/26 14:25:26;;;;;;;3.20;1.60;;;;;;;;;;5028575;28;20458;-62
2023/07/26 14:27:55;;;;;;;2.70;1.17;;;;;;;;;;5034632;28;20543;-62
2023/07/26 14:30:22;;;;;;;1.30;1.20;;;;;;;;;;5034864;28;20548;-62
2023/07/26 14:32:49;;;;;;;2.10;1.97;;;;;;;;;;5034717;28;20493;-62
2023/07/26 14:35:16;;;;;;;2.30;1.70;;;;;;;;;;5034872;28;20455;-62
2023/07/26 14:37:43;;;;;;;2.67;1.33;;;;;;;;;;5034664;28;20462;-62
2023/07/26 14:40:10;;;;;;;1.20;1.10;;;;;;;;;;5034867;28;20829;-63
2023/07/26 14:42:37;;;;;;;3.10;1.40;;;;;;;;;;5034928;28;20542;-62
2023/07/26 14:45:06;;;;;;;3.07;1.40;;;;;;;;;;5033812;28;20458;-62